KGCY/GCY METAR and TAF weather

Enter ICAO airport designator
Station Type Date Time Source
KGCY METAR 2020/02/21 02:35 UTC NOAA

KGCY 210235Z AUTO 35003KT 10SM BKN046 OVC060 00/M01 A3037 RMK A01


Station Type Date Time Source
KGCY Decoded METAR 2020/02/21 02:35 UTC NOAA

Station name not available
Feb 20, 2020 - 09:35 PM EST / 2020.02.21 0235 UTC
Wind: from the N (350 degrees) at 3 MPH (3 KT):0
Visibility: 10 mile(s):0
Sky conditions: overcast
Temperature: 32 F (0 C)
Dew Point: 30 F (-1 C)
Relative Humidity: 92%
Pressure (altimeter): 30.37 in. Hg (1028 hPa)
ob: KGCY 210235Z AUTO 35003KT 10SM BKN046 OVC060 00/M01 A3037 RMK A01
cycle: 2

Station Type Date Time Source
KGCY TAF UTC NOAA

Error!

Example: see airport list